createdAt,value
2022-12-31T00:01:23.315Z,96900.91
2022-12-31T00:03:49.629Z,96904.06
2022-12-31T00:06:15.954Z,96903.78
2022-12-31T00:08:42.220Z,96914.97
2022-12-31T00:11:08.561Z,96917.34
2022-12-31T00:13:34.807Z,96913.59
2022-12-31T00:16:01.879Z,96926.34
2022-12-31T00:18:30.580Z,96921.56
2022-12-31T00:20:57.004Z,96918.34
2022-12-31T00:23:23.249Z,96913.56
2022-12-31T00:25:49.579Z,96913.00
2022-12-31T00:28:15.851Z,96923.13
2022-12-31T00:30:42.387Z,96911.91
2022-12-31T00:33:08.751Z,96920.16
2022-12-31T00:35:35.104Z,96938.25
2022-12-31T00:38:01.489Z,96926.28
2022-12-31T00:40:27.766Z,96926.53
2022-12-31T00:42:54.043Z,96918.00
2022-12-31T00:45:20.348Z,96935.03
2022-12-31T00:47:46.636Z,96913.19
2022-12-31T00:50:12.995Z,96911.84
2022-12-31T00:52:39.302Z,96918.22
2022-12-31T00:55:05.623Z,96907.06
2022-12-31T00:57:31.941Z,96903.03
2022-12-31T00:59:58.194Z,96913.94
2022-12-31T01:02:24.975Z,96921.13
2022-12-31T01:04:51.540Z,96929.34
2022-12-31T01:07:17.806Z,96930.44
2022-12-31T01:09:44.203Z,96934.41
2022-12-31T01:12:10.508Z,96944.22
2022-12-31T01:14:36.779Z,96947.16
2022-12-31T01:17:03.134Z,96940.22
2022-12-31T01:19:29.373Z,96942.34
2022-12-31T01:21:55.742Z,96957.50
2022-12-31T01:24:22.001Z,96939.94
2022-12-31T01:26:48.253Z,96921.59
2022-12-31T01:29:14.514Z,96941.25
2022-12-31T01:31:40.902Z,96941.25
2022-12-31T01:34:07.219Z,96952.16
2022-12-31T01:36:33.487Z,96934.59
2022-12-31T01:38:59.835Z,96947.09
2022-12-31T01:41:26.176Z,96944.69
2022-12-31T01:43:52.550Z,96953.47
2022-12-31T01:46:18.917Z,96929.75
2022-12-31T01:48:45.327Z,96925.50
2022-12-31T01:51:11.605Z,96929.25
2022-12-31T01:53:40.818Z,96934.56
2022-12-31T01:56:07.312Z,96938.28
2022-12-31T01:58:33.555Z,96938.28
2022-12-31T02:00:59.883Z,96953.41
2022-12-31T02:03:26.182Z,96928.69
2022-12-31T02:05:52.495Z,96941.19
2022-12-31T02:08:18.760Z,96935.88
2022-12-31T02:10:45.121Z,96951.00
2022-12-31T02:13:11.490Z,96937.97
2022-12-31T02:15:37.781Z,96947.81
2022-12-31T02:18:04.114Z,96931.84
2022-12-31T02:20:30.341Z,96935.56
2022-12-31T02:22:56.753Z,96930.25
2022-12-31T02:25:23.019Z,96932.91
2022-12-31T02:27:49.312Z,96956.84
2022-12-31T02:30:15.663Z,96919.88
2022-12-31T02:32:41.939Z,96925.19
2022-12-31T02:35:08.639Z,96913.75
2022-12-31T02:37:34.976Z,96902.56
2022-12-31T02:40:01.294Z,96893.81
2022-12-31T02:42:27.658Z,96913.19
2022-12-31T02:44:54.096Z,96903.63
2022-12-31T02:47:20.376Z,96908.94
2022-12-31T02:49:46.655Z,96896.72
2022-12-31T02:52:12.922Z,96900.97
2022-12-31T02:54:39.359Z,96913.47
2022-12-31T02:57:05.636Z,96899.38
2022-12-31T02:59:31.926Z,96893.25
2022-12-31T03:01:58.355Z,96895.91
2022-12-31T03:04:24.789Z,96897.75
2022-12-31T03:06:51.020Z,96883.00
2022-12-31T03:09:17.313Z,96899.59
2022-12-31T03:11:43.607Z,96909.47
2022-12-31T03:14:10.010Z,96908.41
2022-12-31T03:16:36.388Z,96890.84
2022-12-31T03:19:02.748Z,96899.88
2022-12-31T03:21:29.181Z,96882.88
2022-12-31T03:23:55.559Z,96892.69
2022-12-31T03:26:21.810Z,96909.72
2022-12-31T03:28:48.337Z,96898.28
2022-12-31T03:31:14.950Z,96899.09
2022-12-31T03:33:41.344Z,96902.78
2022-12-31T03:36:07.594Z,96894.81
2022-12-31T03:38:33.835Z,96900.94
2022-12-31T03:41:00.126Z,96896.66
2022-12-31T03:43:26.372Z,96885.25
2022-12-31T03:45:52.848Z,96900.41
2022-12-31T03:48:19.118Z,96894.00
2022-12-31T03:50:45.380Z,96894.25
2022-12-31T03:53:11.734Z,96898.53
2022-12-31T03:55:38.053Z,96916.34
2022-12-31T03:58:04.509Z,96894.25
2022-12-31T04:00:30.807Z,96889.75
2022-12-31T04:02:57.183Z,96884.44
2022-12-31T04:05:23.476Z,96904.13
2022-12-31T04:07:49.732Z,96898.00
2022-12-31T04:10:16.052Z,96882.03
2022-12-31T04:12:42.310Z,96891.88
2022-12-31T04:15:08.928Z,96907.81
2022-12-31T04:17:35.174Z,96905.16
2022-12-31T04:20:01.495Z,96874.88
2022-12-31T04:22:27.746Z,96889.22
2022-12-31T04:24:53.984Z,96890.81
2022-12-31T04:27:20.277Z,96874.88
2022-12-31T04:29:46.609Z,96881.78
2022-12-31T04:32:12.994Z,96899.59
2022-12-31T04:34:39.370Z,96888.94
2022-12-31T04:37:05.641Z,96905.72
2022-12-31T04:39:31.990Z,96895.06
2022-12-31T04:41:58.255Z,96884.44
2022-12-31T04:44:27.926Z,96905.72
2022-12-31T04:46:54.291Z,96885.50
2022-12-31T04:49:20.871Z,96897.72
2022-12-31T04:51:47.356Z,96884.44
2022-12-31T04:54:13.709Z,96904.13
2022-12-31T04:56:40.019Z,96898.81
2022-12-31T04:59:06.383Z,96888.16
2022-12-31T05:01:32.820Z,96892.66
2022-12-31T05:03:59.158Z,96890.81
2022-12-31T05:06:25.615Z,96900.66
2022-12-31T05:08:52.050Z,96899.84
2022-12-31T05:11:18.608Z,96875.91
2022-12-31T05:13:45.446Z,96891.88
2022-12-31T05:16:11.768Z,96907.81
2022-12-31T05:18:38.097Z,96891.06
2022-12-31T05:21:04.370Z,96932.81
2022-12-31T05:23:30.647Z,96895.59
2022-12-31T05:25:57.012Z,96869.41
2022-12-31T05:28:23.395Z,96905.41
2022-12-31T05:30:49.920Z,96899.28
2022-12-31T05:33:16.223Z,96902.75
2022-12-31T05:35:42.541Z,96952.47
2022-12-31T05:38:08.821Z,96932.00
2022-12-31T05:40:36.372Z,96916.06
2022-12-31T05:43:02.620Z,96921.38
2022-12-31T05:45:31.235Z,96916.06
2022-12-31T05:47:57.771Z,96948.78
2022-12-31T05:50:24.206Z,96930.41
2022-12-31T05:52:50.578Z,96930.41
2022-12-31T05:55:16.976Z,96951.69
2022-12-31T05:57:43.248Z,96939.16
2022-12-31T06:00:09.548Z,96938.41
2022-12-31T06:02:36.003Z,96943.72
2022-12-31T06:05:02.479Z,96952.47
2022-12-31T06:07:28.965Z,96943.44
2022-12-31T06:09:55.381Z,96956.19
2022-12-31T06:12:21.671Z,96945.56
2022-12-31T06:14:47.964Z,97008.31
2022-12-31T06:17:14.537Z,96925.09
2022-12-31T06:19:40.848Z,96950.88
2022-12-31T06:22:07.096Z,96948.78
2022-12-31T06:24:33.445Z,96943.44
2022-12-31T06:26:59.694Z,96969.22
2022-12-31T06:29:25.959Z,96961.25
2022-12-31T06:31:52.230Z,96969.22
2022-12-31T06:34:18.490Z,96955.13
2022-12-31T06:36:44.892Z,96963.09
2022-12-31T06:39:11.117Z,96975.38
2022-12-31T06:41:37.549Z,96968.16
2022-12-31T06:44:03.935Z,96975.38
2022-12-31T06:46:30.322Z,96971.63
2022-12-31T06:48:56.703Z,96980.41
2022-12-31T06:51:23.172Z,96991.06
2022-12-31T06:53:49.427Z,96982.28
2022-12-31T06:56:15.876Z,96998.22
2022-12-31T06:58:42.396Z,96986.00
2022-12-31T07:01:08.723Z,97001.69
2022-12-31T07:03:35.020Z,97006.75
2022-12-31T07:06:01.285Z,96979.34
2022-12-31T07:08:27.525Z,96997.19
2022-12-31T07:10:53.812Z,97007.56
2022-12-31T07:13:20.080Z,97009.41
2022-12-31T07:15:46.759Z,97002.00
2022-12-31T07:18:13.135Z,97018.75
2022-12-31T07:20:39.413Z,97009.97
2022-12-31T07:23:05.703Z,96994.81
2022-12-31T07:25:32.173Z,97012.63
2022-12-31T07:27:58.470Z,97007.31
2022-12-31T07:30:24.822Z,97030.19
2022-12-31T07:32:51.093Z,97024.84
2022-12-31T07:35:17.370Z,97019.53
2022-12-31T07:37:43.687Z,97046.94
2022-12-31T07:40:09.967Z,97037.13
2022-12-31T07:42:36.310Z,97043.47
2022-12-31T07:45:02.588Z,97075.13
2022-12-31T07:47:28.852Z,97043.22
2022-12-31T07:49:55.164Z,97053.84
2022-12-31T07:52:21.447Z,97049.34
2022-12-31T07:54:47.771Z,97069.59
2022-12-31T07:57:14.126Z,97064.25
2022-12-31T07:59:40.435Z,97075.69
2022-12-31T08:02:06.765Z,97051.75
2022-12-31T08:04:33.193Z,97068.25
2022-12-31T08:06:59.596Z,97090.34
2022-12-31T08:09:25.845Z,97067.75
2022-12-31T08:11:52.109Z,97069.38
2022-12-31T08:14:18.464Z,97069.38
2022-12-31T08:16:44.818Z,97092.25
2022-12-31T08:19:11.320Z,97089.56
2022-12-31T08:21:37.573Z,97107.94
2022-12-31T08:24:03.845Z,97102.38
2022-12-31T08:26:30.170Z,97115.44
2022-12-31T08:28:56.708Z,97098.97
2022-12-31T08:31:23.134Z,97100.31
2022-12-31T08:33:49.429Z,97097.47
2022-12-31T08:36:15.747Z,97099.69
2022-12-31T08:38:42.031Z,97093.41
2022-12-31T08:41:08.443Z,97096.44
2022-12-31T08:43:35.083Z,97099.16
2022-12-31T08:46:01.570Z,97106.97
2022-12-31T08:48:27.906Z,97114.50
2022-12-31T08:50:54.505Z,97110.00
2022-12-31T08:53:20.796Z,97104.44
2022-12-31T08:55:47.164Z,97110.63
2022-12-31T08:58:13.483Z,97103.72
2022-12-31T09:00:39.961Z,97102.69
2022-12-31T09:03:06.464Z,97120.56
2022-12-31T09:05:32.966Z,97105.66
2022-12-31T09:07:59.220Z,97117.94
2022-12-31T09:10:25.479Z,97124.84
2022-12-31T09:12:51.746Z,97121.91
2022-12-31T09:15:18.011Z,97124.09
2022-12-31T09:17:44.373Z,97141.41
2022-12-31T09:20:10.741Z,97129.19
2022-12-31T09:22:37.033Z,97136.09
2022-12-31T09:25:03.345Z,97145.19
2022-12-31T09:27:29.663Z,97135.06
2022-12-31T09:29:56.065Z,97131.63
2022-12-31T09:32:22.359Z,97140.72
2022-12-31T09:34:48.741Z,97142.84
2022-12-31T09:37:17.843Z,97149.28
2022-12-31T09:39:44.390Z,97144.22
2022-12-31T09:42:10.640Z,97156.22
2022-12-31T09:44:36.956Z,97151.44
2022-12-31T09:47:03.324Z,97156.25
2022-12-31T09:49:29.588Z,97151.22
2022-12-31T09:51:55.991Z,97152.53
2022-12-31T09:54:22.249Z,97147.78
2022-12-31T09:56:49.057Z,97151.81
2022-12-31T09:59:16.506Z,97156.59
2022-12-31T10:01:43.025Z,97151.00
2022-12-31T10:04:09.549Z,97135.53
2022-12-31T10:06:35.824Z,97139.53
2022-12-31T10:09:02.249Z,97146.75
2022-12-31T10:11:28.598Z,97146.50
2022-12-31T10:13:54.872Z,97152.88
2022-12-31T10:16:21.314Z,97164.66
2022-12-31T10:18:47.650Z,97160.66
2022-12-31T10:21:14.009Z,97157.72
2022-12-31T10:23:40.269Z,97155.06
2022-12-31T10:26:06.583Z,97163.88
2022-12-31T10:28:32.909Z,97161.47
2022-12-31T10:30:59.345Z,97163.06
2022-12-31T10:33:25.671Z,97159.34
2022-12-31T10:35:51.918Z,97162.53
2022-12-31T10:38:18.716Z,97168.41
2022-12-31T10:40:45.306Z,97169.50
2022-12-31T10:43:16.582Z,97178.06
2022-12-31T10:45:43.856Z,97172.44
2022-12-31T10:48:12.297Z,97185.00
2022-12-31T10:50:38.644Z,97193.81
2022-12-31T10:53:05.109Z,97194.59
2022-12-31T10:55:36.273Z,97205.25
2022-12-31T10:58:04.505Z,97212.22
2022-12-31T11:00:31.547Z,97203.13
2022-12-31T11:02:58.309Z,97206.88
2022-12-31T11:05:24.766Z,97209.28
2022-12-31T11:07:51.006Z,97219.16
2022-12-31T11:10:18.452Z,97219.69
2022-12-31T11:12:44.854Z,97215.16
2022-12-31T11:15:25.585Z,97216.25
2022-12-31T11:17:52.937Z,97221.06
2022-12-31T11:20:19.455Z,97219.97
2022-12-31T11:22:46.212Z,97214.91
2022-12-31T11:25:12.803Z,97204.50
2022-12-31T11:27:39.122Z,97219.22
2022-12-31T11:30:05.409Z,97213.34
2022-12-31T11:32:31.867Z,97213.06
2022-12-31T11:34:58.169Z,97218.97
2022-12-31T11:37:26.802Z,97216.00
2022-12-31T11:39:57.351Z,97213.06
2022-12-31T11:42:23.619Z,97205.88
2022-12-31T11:44:56.228Z,97203.47
2022-12-31T11:48:28.998Z,97210.41
2022-12-31T11:50:45.039Z,97214.44
2022-12-31T11:53:11.431Z,97206.97
2022-12-31T11:58:29.628Z,97193.59
2022-12-31T12:00:59.315Z,97197.66
2022-12-31T12:03:26.495Z,97202.72
2022-12-31T12:05:59.315Z,97211.28
2022-12-31T12:08:25.759Z,97207.25
2022-12-31T12:10:52.224Z,97196.31
2022-12-31T12:13:20.206Z,97204.88
2022-12-31T12:15:46.731Z,97199.25
2022-12-31T12:18:13.079Z,97207.00
2022-12-31T12:20:39.452Z,97203.28
2022-12-31T12:23:05.819Z,97205.94
2022-12-31T12:25:32.339Z,97206.47
2022-12-31T12:27:58.623Z,97198.19
2022-12-31T12:30:24.981Z,97211.28
2022-12-31T12:32:51.307Z,97219.84
2022-12-31T12:35:20.960Z,97235.31
2022-12-31T12:37:47.723Z,97227.84
2022-12-31T12:40:13.985Z,97219.84
2022-12-31T12:42:40.323Z,97217.69
2022-12-31T12:45:06.902Z,97208.59
2022-12-31T12:47:33.451Z,97226.75
2022-12-31T12:50:02.781Z,97223.31
2022-12-31T12:52:29.037Z,97232.09
2022-12-31T12:55:05.949Z,97228.66
2022-12-31T12:57:32.633Z,97230.78
2022-12-31T12:59:58.949Z,97235.84
2022-12-31T13:02:25.446Z,97238.53
2022-12-31T13:04:51.800Z,97228.66
2022-12-31T13:07:18.069Z,97225.72
2022-12-31T13:09:44.569Z,97242.56
2022-12-31T13:12:10.838Z,97241.47
2022-12-31T13:14:37.084Z,97254.03
2022-12-31T13:17:03.497Z,97251.34
2022-12-31T13:19:29.851Z,97252.44
2022-12-31T13:21:56.139Z,97248.16
2022-12-31T13:24:22.478Z,97250.81
2022-12-31T13:26:48.930Z,97244.97
2022-12-31T13:29:15.195Z,97246.00
2022-12-31T13:31:41.562Z,97247.09
2022-12-31T13:34:07.853Z,97239.06
2022-12-31T13:36:34.123Z,97250.81
2022-12-31T13:39:00.408Z,97234.78
2022-12-31T13:41:28.832Z,97234.00
2022-12-31T13:43:55.082Z,97235.59
2022-12-31T13:46:21.366Z,97226.53
2022-12-31T13:48:47.626Z,97241.75
2022-12-31T13:51:13.915Z,97231.06
2022-12-31T13:53:40.193Z,97250.56
2022-12-31T13:56:06.452Z,97239.88
2022-12-31T13:58:32.809Z,97245.22
2022-12-31T14:00:59.088Z,97248.16
2022-12-31T14:03:25.523Z,97245.47
2022-12-31T14:05:51.858Z,97248.16
2022-12-31T14:08:18.155Z,97254.56
2022-12-31T14:10:44.461Z,97244.41
2022-12-31T14:13:10.796Z,97246.81
2022-12-31T14:15:37.070Z,97249.75
2022-12-31T14:18:03.371Z,97277.03
2022-12-31T14:20:29.654Z,97273.28
2022-12-31T14:22:55.886Z,97281.28
2022-12-31T14:25:22.221Z,97264.72
2022-12-31T14:27:48.670Z,97273.81
2022-12-31T14:30:15.027Z,97263.41
2022-12-31T14:32:44.472Z,97266.63
2022-12-31T14:35:10.762Z,97287.19
2022-12-31T14:37:37.038Z,97284.25
2022-12-31T14:40:03.572Z,97288.78
2022-12-31T14:42:29.840Z,97291.19
2022-12-31T14:44:56.154Z,97296.53
2022-12-31T14:47:22.569Z,97302.69
2022-12-31T14:49:48.838Z,97308.84
2022-12-31T14:52:15.068Z,97301.59
2022-12-31T14:54:42.526Z,97318.72
2022-12-31T14:57:08.828Z,97316.84
2022-12-31T14:59:40.215Z,97324.06
2022-12-31T15:02:07.121Z,97345.72
2022-12-31T15:04:33.527Z,97346.53
2022-12-31T15:06:59.839Z,97355.59
2022-12-31T15:09:26.111Z,97346.78
2022-12-31T15:11:52.399Z,97336.09
2022-12-31T15:14:18.701Z,97339.00
2022-12-31T15:16:45.041Z,97334.75
2022-12-31T15:19:11.406Z,97351.88
2022-12-31T15:21:38.886Z,97357.44
2022-12-31T15:24:05.216Z,97351.31
2022-12-31T15:26:31.508Z,97357.72
2022-12-31T15:29:01.051Z,97352.38
2022-12-31T15:31:27.444Z,97363.34
2022-12-31T15:33:53.769Z,97342.22
2022-12-31T15:36:20.350Z,97349.44
2022-12-31T15:38:46.730Z,97360.38
2022-12-31T15:41:13.247Z,97355.03
2022-12-31T15:43:39.512Z,97351.03
2022-12-31T15:46:05.892Z,97340.34
2022-12-31T15:48:32.181Z,97334.19
2022-12-31T15:50:58.505Z,97337.13
2022-12-31T15:53:24.924Z,97331.50
2022-12-31T15:55:51.218Z,97333.09
2022-12-31T15:58:17.492Z,97333.09
2022-12-31T16:00:43.762Z,97329.91
2022-12-31T16:03:10.079Z,97341.66
2022-12-31T16:05:36.389Z,97322.97
2022-12-31T16:08:02.999Z,97326.69
2022-12-31T16:10:29.398Z,97319.47
2022-12-31T16:12:58.861Z,97325.91
2022-12-31T16:15:25.167Z,97329.34
2022-12-31T16:17:51.432Z,97329.13
2022-12-31T16:20:17.758Z,97320.03
2022-12-31T16:22:44.015Z,97308.25
2022-12-31T16:25:30.034Z,97307.19
2022-12-31T16:27:56.557Z,97312.28
2022-12-31T16:30:22.847Z,97307.47
2022-12-31T16:32:49.117Z,97293.03
2022-12-31T16:35:23.056Z,97325.91
2022-12-31T16:37:49.867Z,97325.38
2022-12-31T16:40:16.160Z,97320.84
2022-12-31T16:42:44.450Z,97329.41
2022-12-31T16:45:11.118Z,97329.41
2022-12-31T16:47:37.402Z,97337.97
2022-12-31T16:50:03.823Z,97329.13
2022-12-31T16:52:30.122Z,97326.19
2022-12-31T16:54:56.419Z,97324.59
2022-12-31T16:57:22.780Z,97325.38
2022-12-31T16:59:49.054Z,97336.88
2022-12-31T17:02:15.555Z,97331.53
2022-12-31T17:04:48.095Z,97321.38
2022-12-31T17:07:17.816Z,97321.38
2022-12-31T17:09:44.579Z,97316.84
2022-12-31T17:12:10.955Z,97312.28
2022-12-31T17:14:37.242Z,97322.97
2022-12-31T17:17:04.140Z,97327.28
2022-12-31T17:19:30.523Z,97335.03
2022-12-31T17:21:56.882Z,97314.72
2022-12-31T17:24:23.143Z,97316.31
2022-12-31T17:26:49.414Z,97323.53
2022-12-31T17:29:15.827Z,97315.22
2022-12-31T17:31:42.278Z,97329.41
2022-12-31T17:34:08.588Z,97314.19
2022-12-31T17:36:34.860Z,97327.53
2022-12-31T17:39:01.145Z,97320.31
2022-12-31T17:41:27.471Z,97328.31
2022-12-31T17:43:53.876Z,97331.00
2022-12-31T17:46:20.173Z,97333.44
2022-12-31T17:48:46.463Z,97331.00
2022-12-31T17:51:12.742Z,97324.34
2022-12-31T17:53:39.019Z,97321.66
2022-12-31T17:56:05.261Z,97325.16
2022-12-31T17:58:31.533Z,97320.59
2022-12-31T18:00:58.294Z,97321.38
2022-12-31T18:03:24.847Z,97316.03
2022-12-31T18:05:51.341Z,97339.28
2022-12-31T18:08:17.816Z,97327.81
2022-12-31T18:10:44.075Z,97332.09
2022-12-31T18:13:10.377Z,97332.91
2022-12-31T18:15:36.608Z,97331.03
2022-12-31T18:18:02.907Z,97339.28
2022-12-31T18:20:29.358Z,97315.22
2022-12-31T18:22:55.654Z,97318.72
2022-12-31T18:25:21.886Z,97313.91
2022-12-31T18:27:48.142Z,97320.06
2022-12-31T18:30:14.603Z,97313.91
2022-12-31T18:32:41.042Z,97313.91
2022-12-31T18:35:07.320Z,97320.31
2022-12-31T18:37:33.881Z,97311.50
2022-12-31T18:40:00.231Z,97317.13
2022-12-31T18:42:26.531Z,97315.50
2022-12-31T18:44:52.745Z,97312.84
2022-12-31T18:47:19.389Z,97302.41
2022-12-31T18:49:46.773Z,97301.59
2022-12-31T18:52:13.082Z,97298.41
2022-12-31T18:54:39.621Z,97297.59
2022-12-31T18:57:05.920Z,97302.94
2022-12-31T18:59:32.607Z,97291.44
2022-12-31T19:01:58.972Z,97290.63
2022-12-31T19:04:28.338Z,97298.41
2022-12-31T19:06:54.897Z,97290.41
2022-12-31T19:09:44.258Z,97285.06
2022-12-31T19:12:07.441Z,97283.16
2022-12-31T19:14:34.112Z,97291.19
2022-12-31T19:19:28.541Z,97276.75
2022-12-31T19:21:54.865Z,97283.69
2022-12-31T19:24:21.173Z,97289.03
2022-12-31T19:26:47.440Z,97273.81
2022-12-31T19:29:13.714Z,97283.44
2022-12-31T19:31:40.119Z,97273.81
2022-12-31T19:34:06.547Z,97267.66
2022-12-31T19:36:33.805Z,97265.00
2022-12-31T19:39:02.430Z,97273.00
2022-12-31T19:41:28.672Z,97261.50
2022-12-31T19:43:55.170Z,97264.19
2022-12-31T19:46:21.485Z,97270.34
2022-12-31T19:48:47.895Z,97266.06
2022-12-31T19:51:14.160Z,97269.03
2022-12-31T19:53:40.408Z,97275.94
2022-12-31T19:56:06.791Z,97272.47
2022-12-31T19:58:33.265Z,97275.41
2022-12-31T20:01:02.764Z,97283.44
2022-12-31T20:03:29.849Z,97268.47
2022-12-31T20:05:56.190Z,97283.69
2022-12-31T20:08:22.443Z,97278.63
2022-12-31T20:10:48.796Z,97281.28
2022-12-31T20:13:15.145Z,97290.38
2022-12-31T20:15:41.453Z,97290.38
2022-12-31T20:18:07.818Z,97285.28
2022-12-31T20:20:34.061Z,97290.63
2022-12-31T20:23:00.370Z,97271.16
2022-12-31T20:25:26.635Z,97276.50
2022-12-31T20:27:52.938Z,97279.94
2022-12-31T20:30:19.370Z,97287.97
2022-12-31T20:32:45.812Z,97294.94
2022-12-31T20:35:12.151Z,97293.31
2022-12-31T20:37:38.510Z,97284.25
2022-12-31T20:40:04.934Z,97302.69
2022-12-31T20:42:31.172Z,97289.59
2022-12-31T20:44:57.487Z,97293.03
2022-12-31T20:47:23.756Z,97303.50
2022-12-31T20:50:10.998Z,97300.00
2022-12-31T20:52:36.200Z,97302.69
2022-12-31T20:55:02.496Z,97301.88
2022-12-31T20:57:33.369Z,97300.28
2022-12-31T21:00:00.175Z,97303.72
2022-12-31T21:02:40.222Z,97307.22
2022-12-31T21:05:07.632Z,97306.41
2022-12-31T21:07:34.219Z,97300.53
2022-12-31T21:10:00.477Z,97303.22
2022-12-31T21:12:26.867Z,97321.91
2022-12-31T21:14:53.308Z,97297.34
2022-12-31T21:17:19.656Z,97324.59
2022-12-31T21:19:45.927Z,97317.63
2022-12-31T21:22:12.271Z,97325.66
2022-12-31T21:24:38.720Z,97344.63
2022-12-31T21:27:04.951Z,97325.09
2022-12-31T21:29:34.571Z,97333.13
2022-12-31T21:32:01.842Z,97323.50
2022-12-31T21:34:28.114Z,97335.25
2022-12-31T21:36:54.588Z,97337.91
2022-12-31T21:39:20.922Z,97345.16
2022-12-31T21:41:47.208Z,97350.50
2022-12-31T21:44:13.573Z,97339.25
2022-12-31T21:46:54.631Z,97342.75
2022-12-31T21:49:26.203Z,97351.81
2022-12-31T21:51:52.531Z,97351.81
2022-12-31T21:54:18.851Z,97349.16
2022-12-31T21:56:45.153Z,97344.06
2022-12-31T21:59:11.439Z,97351.28
2022-12-31T22:01:37.769Z,97359.00
2022-12-31T22:04:04.234Z,97355.84
2022-12-31T22:06:30.551Z,97363.03
2022-12-31T22:08:56.850Z,97359.56
2022-12-31T22:11:23.115Z,97369.44
2022-12-31T22:13:49.372Z,97369.44
2022-12-31T22:16:15.745Z,97374.78
2022-12-31T22:18:42.094Z,97382.78
2022-12-31T22:21:13.953Z,97374.78
2022-12-31T22:23:43.935Z,97383.88
2022-12-31T22:26:10.208Z,97390.28
2022-12-31T22:28:38.575Z,97398.31
2022-12-31T22:31:05.999Z,97396.69
2022-12-31T22:33:32.315Z,97401.22
2022-12-31T22:35:58.601Z,97404.97
2022-12-31T22:38:24.889Z,97398.81
2022-12-31T22:40:51.160Z,97407.91
2022-12-31T22:43:17.418Z,97405.22
2022-12-31T22:45:43.691Z,97407.91
2022-12-31T22:48:09.964Z,97408.97
2022-12-31T22:50:36.379Z,97414.56
2022-12-31T22:53:02.784Z,97418.31
2022-12-31T22:55:29.073Z,97418.56
2022-12-31T22:57:55.428Z,97415.09
2022-12-31T23:00:21.750Z,97413.47
2022-12-31T23:02:48.051Z,97422.50
2022-12-31T23:05:16.087Z,97416.38
2022-12-31T23:07:42.641Z,97421.97
2022-12-31T23:10:08.931Z,97442.28
2022-12-31T23:12:35.231Z,97417.72
2022-12-31T23:15:01.726Z,97417.16
2022-12-31T23:17:29.610Z,97419.00
2022-12-31T23:19:57.993Z,97419.28
2022-12-31T23:22:24.384Z,97429.19
2022-12-31T23:24:50.675Z,97437.19
2022-12-31T23:27:16.984Z,97435.56
2022-12-31T23:29:47.067Z,97432.34
2022-12-31T23:32:13.911Z,97424.59
2022-12-31T23:34:40.299Z,97439.81
2022-12-31T23:37:06.585Z,97439.03
2022-12-31T23:39:32.979Z,97439.28
2022-12-31T23:41:59.240Z,97441.97
2022-12-31T23:44:25.621Z,97434.19
2022-12-31T23:46:51.922Z,97436.06
2022-12-31T23:49:18.224Z,97437.13
2022-12-31T23:51:44.515Z,97434.44
2022-12-31T23:54:10.837Z,97429.38
2022-12-31T23:56:37.091Z,97448.31
2022-12-31T23:59:03.458Z,97443.00
